sensor_id;sensor_type;location;lat;lon;timestamp;pressure;altitude;pressure_sealevel;temperature;humidity
19236;BME280;9752;54.270;12.470;2024-03-22T00:01:52;102788.25;;;6.94;100.00
19236;BME280;9752;54.270;12.470;2024-03-22T00:06:55;102771.84;;;6.94;100.00
19236;BME280;9752;54.270;12.470;2024-03-22T00:11:57;102744.81;;;6.90;100.00
19236;BME280;9752;54.270;12.470;2024-03-22T00:16:59;102725.69;;;6.88;100.00
19236;BME280;9752;54.270;12.470;2024-03-22T00:22:02;102704.31;;;6.89;100.00
19236;BME280;9752;54.270;12.470;2024-03-22T00:27:03;102688.19;;;6.83;100.00
19236;BME280;9752;54.270;12.470;2024-03-22T00:32:05;102690.78;;;6.83;100.00
19236;BME280;9752;54.270;12.470;2024-03-22T00:37:09;102681.38;;;6.83;100.00
19236;BME280;9752;54.270;12.470;2024-03-22T00:42:10;102665.88;;;6.83;100.00
19236;BME280;9752;54.270;12.470;2024-03-22T00:47:12;102661.31;;;6.81;100.00
19236;BME280;9752;54.270;12.470;2024-03-22T00:52:15;102653.16;;;6.85;100.00
19236;BME280;9752;54.270;12.470;2024-03-22T00:57:16;102653.47;;;6.88;100.00
19236;BME280;9752;54.270;12.470;2024-03-22T01:02:18;102635.25;;;6.87;100.00
19236;BME280;9752;54.270;12.470;2024-03-22T01:07:21;102624.44;;;6.82;100.00
19236;BME280;9752;54.270;12.470;2024-03-22T01:12:23;102618.41;;;6.81;100.00
19236;BME280;9752;54.270;12.470;2024-03-22T01:17:25;102592.44;;;6.80;100.00
19236;BME280;9752;54.270;12.470;2024-03-22T01:22:28;102574.22;;;6.78;100.00
19236;BME280;9752;54.270;12.470;2024-03-22T01:27:29;102561.94;;;6.76;100.00
19236;BME280;9752;54.270;12.470;2024-03-22T01:32:31;102546.13;;;6.73;100.00
19236;BME280;9752;54.270;12.470;2024-03-22T01:37:34;102545.69;;;6.77;100.00
19236;BME280;9752;54.270;12.470;2024-03-22T01:42:35;102538.72;;;6.84;100.00
19236;BME280;9752;54.270;12.470;2024-03-22T01:47:37;102524.03;;;6.83;100.00
19236;BME280;9752;54.270;12.470;2024-03-22T01:52:40;102508.72;;;6.85;100.00
19236;BME280;9752;54.270;12.470;2024-03-22T01:57:42;102504.63;;;6.87;100.00
19236;BME280;9752;54.270;12.470;2024-03-22T02:02:47;102489.88;;;6.86;100.00
19236;BME280;9752;54.270;12.470;2024-03-22T02:07:50;102455.63;;;6.87;100.00
19236;BME280;9752;54.270;12.470;2024-03-22T02:12:52;102454.09;;;6.89;100.00
19236;BME280;9752;54.270;12.470;2024-03-22T02:17:53;102447.44;;;6.91;100.00
19236;BME280;9752;54.270;12.470;2024-03-22T02:22:56;102440.59;;;6.92;100.00
19236;BME280;9752;54.270;12.470;2024-03-22T02:27:59;102432.25;;;6.94;100.00
19236;BME280;9752;54.270;12.470;2024-03-22T02:33:01;102430.16;;;6.99;100.00
19236;BME280;9752;54.270;12.470;2024-03-22T02:38:03;102444.28;;;7.02;100.00
19236;BME280;9752;54.270;12.470;2024-03-22T02:43:06;102432.28;;;7.03;100.00
19236;BME280;9752;54.270;12.470;2024-03-22T02:48:07;102431.81;;;7.07;100.00
19236;BME280;9752;54.270;12.470;2024-03-22T02:53:09;102418.00;;;7.07;100.00
19236;BME280;9752;54.270;12.470;2024-03-22T02:58:12;102389.19;;;7.11;100.00
19236;BME280;9752;54.270;12.470;2024-03-22T03:03:14;102393.88;;;7.15;100.00
19236;BME280;9752;54.270;12.470;2024-03-22T03:08:15;102376.75;;;7.15;100.00
19236;BME280;9752;54.270;12.470;2024-03-22T03:13:18;102366.72;;;7.27;100.00
19236;BME280;9752;54.270;12.470;2024-03-22T03:18:20;102355.63;;;7.28;100.00
19236;BME280;9752;54.270;12.470;2024-03-22T03:23:21;102356.41;;;7.27;100.00
19236;BME280;9752;54.270;12.470;2024-03-22T03:28:24;102354.25;;;7.32;100.00
19236;BME280;9752;54.270;12.470;2024-03-22T03:33:26;102338.47;;;7.37;100.00
19236;BME280;9752;54.270;12.470;2024-03-22T03:38:27;102317.53;;;7.34;100.00
19236;BME280;9752;54.270;12.470;2024-03-22T03:43:30;102299.00;;;7.38;100.00
19236;BME280;9752;54.270;12.470;2024-03-22T03:48:32;102279.41;;;7.40;100.00
19236;BME280;9752;54.270;12.470;2024-03-22T03:53:34;102279.81;;;7.45;100.00
19236;BME280;9752;54.270;12.470;2024-03-22T03:58:37;102263.28;;;7.43;100.00
19236;BME280;9752;54.270;12.470;2024-03-22T04:03:38;102259.31;;;7.47;100.00
19236;BME280;9752;54.270;12.470;2024-03-22T04:08:40;102238.50;;;7.54;100.00
19236;BME280;9752;54.270;12.470;2024-03-22T04:13:43;102224.22;;;7.57;100.00
19236;BME280;9752;54.270;12.470;2024-03-22T04:18:45;102226.03;;;7.58;100.00
19236;BME280;9752;54.270;12.470;2024-03-22T04:23:47;102218.72;;;7.63;100.00
19236;BME280;9752;54.270;12.470;2024-03-22T04:28:50;102206.88;;;7.65;100.00
19236;BME280;9752;54.270;12.470;2024-03-22T04:33:51;102195.50;;;7.63;100.00
19236;BME280;9752;54.270;12.470;2024-03-22T04:38:53;102179.84;;;7.61;100.00
19236;BME280;9752;54.270;12.470;2024-03-22T04:43:55;102163.22;;;7.68;100.00
19236;BME280;9752;54.270;12.470;2024-03-22T04:48:57;102177.34;;;7.72;100.00
19236;BME280;9752;54.270;12.470;2024-03-22T04:53:59;102162.16;;;7.75;100.00
19236;BME280;9752;54.270;12.470;2024-03-22T04:59:02;102151.81;;;7.75;100.00
19236;BME280;9752;54.270;12.470;2024-03-22T05:04:04;102138.00;;;7.74;100.00
19236;BME280;9752;54.270;12.470;2024-03-22T05:09:05;102151.06;;;7.76;100.00
19236;BME280;9752;54.270;12.470;2024-03-22T05:14:11;102135.41;;;7.74;100.00
19236;BME280;9752;54.270;12.470;2024-03-22T05:19:13;102142.69;;;7.78;100.00
19236;BME280;9752;54.270;12.470;2024-03-22T05:24:14;102130.03;;;7.81;100.00
19236;BME280;9752;54.270;12.470;2024-03-22T05:29:17;102107.72;;;7.82;100.00
19236;BME280;9752;54.270;12.470;2024-03-22T05:34:19;102107.97;;;7.85;100.00
19236;BME280;9752;54.270;12.470;2024-03-22T05:39:20;102099.63;;;7.88;100.00
19236;BME280;9752;54.270;12.470;2024-03-22T05:44:23;102092.78;;;7.88;100.00
19236;BME280;9752;54.270;12.470;2024-03-22T05:49:25;102099.44;;;7.95;100.00
19236;BME280;9752;54.270;12.470;2024-03-22T05:54:26;102084.81;;;7.95;100.00
19236;BME280;9752;54.270;12.470;2024-03-22T05:59:29;102083.94;;;7.95;100.00
19236;BME280;9752;54.270;12.470;2024-03-22T06:04:31;102053.47;;;8.01;100.00
19236;BME280;9752;54.270;12.470;2024-03-22T06:09:32;102044.31;;;8.05;100.00
19236;BME280;9752;54.270;12.470;2024-03-22T06:14:47;102056.66;;;8.17;100.00
19236;BME280;9752;54.270;12.470;2024-03-22T06:19:49;102038.44;;;8.16;100.00
19236;BME280;9752;54.270;12.470;2024-03-22T06:24:50;102031.75;;;8.18;100.00
19236;BME280;9752;54.270;12.470;2024-03-22T06:29:53;102032.41;;;8.26;100.00
19236;BME280;9752;54.270;12.470;2024-03-22T06:34:55;102015.00;;;8.33;100.00
19236;BME280;9752;54.270;12.470;2024-03-22T06:39:56;102015.63;;;8.31;100.00
19236;BME280;9752;54.270;12.470;2024-03-22T06:45:00;101997.81;;;8.34;100.00
19236;BME280;9752;54.270;12.470;2024-03-22T06:50:02;102001.72;;;8.39;100.00
19236;BME280;9752;54.270;12.470;2024-03-22T06:55:05;101990.13;;;8.44;100.00
19236;BME280;9752;54.270;12.470;2024-03-22T07:00:09;101980.41;;;8.42;100.00
19236;BME280;9752;54.270;12.470;2024-03-22T07:05:11;101908.56;;;8.48;100.00
19236;BME280;9752;54.270;12.470;2024-03-22T07:10:13;101904.59;;;8.62;100.00
19236;BME280;9752;54.270;12.470;2024-03-22T07:15:16;101875.25;;;8.71;100.00
19236;BME280;9752;54.270;12.470;2024-03-22T07:20:18;101872.38;;;8.99;100.00
19236;BME280;9752;54.270;12.470;2024-03-22T07:25:20;101858.16;;;9.14;100.00
19236;BME280;9752;54.270;12.470;2024-03-22T07:30:23;101850.56;;;9.38;100.00
19236;BME280;9752;54.270;12.470;2024-03-22T07:35:24;101826.81;;;9.54;100.00
19236;BME280;9752;54.270;12.470;2024-03-22T07:40:26;101770.75;;;9.54;100.00
19236;BME280;9752;54.270;12.470;2024-03-22T07:45:29;101752.47;;;9.85;100.00
19236;BME280;9752;54.270;12.470;2024-03-22T07:50:30;101732.31;;;9.93;100.00
19236;BME280;9752;54.270;12.470;2024-03-22T07:55:32;101727.56;;;10.09;100.00
19236;BME280;9752;54.270;12.470;2024-03-22T08:00:35;101716.06;;;10.18;100.00
19236;BME280;9752;54.270;12.470;2024-03-22T08:05:36;101706.78;;;10.43;100.00
19236;BME280;9752;54.270;12.470;2024-03-22T08:10:38;101695.19;;;10.38;100.00
19236;BME280;9752;54.270;12.470;2024-03-22T08:15:41;101665.56;;;10.70;100.00
19236;BME280;9752;54.270;12.470;2024-03-22T08:20:44;101659.06;;;11.00;100.00
19236;BME280;9752;54.270;12.470;2024-03-22T08:25:45;101667.44;;;11.08;100.00
19236;BME280;9752;54.270;12.470;2024-03-22T08:30:48;101645.91;;;10.97;100.00
19236;BME280;9752;54.270;12.470;2024-03-22T08:35:50;101643.50;;;11.12;100.00
19236;BME280;9752;54.270;12.470;2024-03-22T08:40:51;101627.75;;;10.85;100.00
19236;BME280;9752;54.270;12.470;2024-03-22T08:45:55;101619.03;;;10.97;100.00
19236;BME280;9752;54.270;12.470;2024-03-22T08:50:58;101609.03;;;10.42;100.00
19236;BME280;9752;54.270;12.470;2024-03-22T08:55:59;101595.28;;;10.67;100.00
19236;BME280;9752;54.270;12.470;2024-03-22T09:01:02;101589.28;;;10.68;100.00
19236;BME280;9752;54.270;12.470;2024-03-22T09:06:04;101589.81;;;10.75;100.00
19236;BME280;9752;54.270;12.470;2024-03-22T09:11:06;101564.91;;;11.14;100.00
19236;BME280;9752;54.270;12.470;2024-03-22T09:16:09;101550.25;;;11.79;100.00
19236;BME280;9752;54.270;12.470;2024-03-22T09:21:11;101540.88;;;11.81;100.00
19236;BME280;9752;54.270;12.470;2024-03-22T09:26:12;101538.88;;;11.77;100.00
19236;BME280;9752;54.270;12.470;2024-03-22T09:31:16;101524.91;;;11.63;100.00
19236;BME280;9752;54.270;12.470;2024-03-22T09:36:17;101523.06;;;11.10;100.00
19236;BME280;9752;54.270;12.470;2024-03-22T09:41:24;101525.59;;;10.97;100.00
19236;BME280;9752;54.270;12.470;2024-03-22T09:46:27;101533.41;;;10.85;100.00
19236;BME280;9752;54.270;12.470;2024-03-22T09:51:30;101521.91;;;10.81;100.00
19236;BME280;9752;54.270;12.470;2024-03-22T09:56:33;101527.53;;;10.87;100.00
19236;BME280;9752;54.270;12.470;2024-03-22T10:01:39;101512.28;;;10.92;100.00
19236;BME280;9752;54.270;12.470;2024-03-22T10:06:41;101504.50;;;10.92;100.00
19236;BME280;9752;54.270;12.470;2024-03-22T10:11:44;101494.00;;;10.90;100.00
19236;BME280;9752;54.270;12.470;2024-03-22T10:16:46;101493.63;;;10.98;100.00
19236;BME280;9752;54.270;12.470;2024-03-22T10:21:59;101484.25;;;11.00;100.00
19236;BME280;9752;54.270;12.470;2024-03-22T10:27:01;101446.59;;;11.18;100.00
19236;BME280;9752;54.270;12.470;2024-03-22T10:32:04;101451.38;;;11.12;100.00
19236;BME280;9752;54.270;12.470;2024-03-22T10:37:08;101443.09;;;11.18;100.00
19236;BME280;9752;54.270;12.470;2024-03-22T10:42:11;101449.00;;;11.28;100.00
19236;BME280;9752;54.270;12.470;2024-03-22T10:47:17;101441.75;;;11.11;100.00
19236;BME280;9752;54.270;12.470;2024-03-22T10:52:19;101443.47;;;11.62;100.00
19236;BME280;9752;54.270;12.470;2024-03-22T10:57:21;101432.28;;;11.63;100.00
19236;BME280;9752;54.270;12.470;2024-03-22T11:02:27;101423.91;;;11.81;100.00
19236;BME280;9752;54.270;12.470;2024-03-22T11:07:29;101433.69;;;11.58;100.00
19236;BME280;9752;54.270;12.470;2024-03-22T11:12:31;101433.41;;;11.28;100.00
19236;BME280;9752;54.270;12.470;2024-03-22T11:17:35;101429.22;;;11.30;100.00
19236;BME280;9752;54.270;12.470;2024-03-22T11:22:37;101442.22;;;11.30;100.00
19236;BME280;9752;54.270;12.470;2024-03-22T11:27:38;101441.47;;;11.45;100.00
19236;BME280;9752;54.270;12.470;2024-03-22T11:32:41;101442.84;;;11.53;100.00
19236;BME280;9752;54.270;12.470;2024-03-22T11:37:45;101443.84;;;11.94;100.00
19236;BME280;9752;54.270;12.470;2024-03-22T11:42:49;101416.00;;;12.06;100.00
19236;BME280;9752;54.270;12.470;2024-03-22T11:47:53;101405.13;;;11.98;100.00
19236;BME280;9752;54.270;12.470;2024-03-22T11:52:55;101414.72;;;11.86;100.00
19236;BME280;9752;54.270;12.470;2024-03-22T11:57:57;101397.53;;;11.61;100.00
19236;BME280;9752;54.270;12.470;2024-03-22T12:03:00;101389.28;;;11.55;100.00
19236;BME280;9752;54.270;12.470;2024-03-22T12:08:02;101369.31;;;11.41;100.00
19236;BME280;9752;54.270;12.470;2024-03-22T12:13:04;101371.53;;;11.48;100.00
19236;BME280;9752;54.270;12.470;2024-03-22T12:18:07;101365.03;;;11.41;100.00
19236;BME280;9752;54.270;12.470;2024-03-22T12:23:08;101368.50;;;11.28;100.00
19236;BME280;9752;54.270;12.470;2024-03-22T12:28:10;101354.34;;;11.37;100.00
19236;BME280;9752;54.270;12.470;2024-03-22T12:33:12;101363.63;;;11.46;100.00
19236;BME280;9752;54.270;12.470;2024-03-22T12:38:14;101339.13;;;11.16;100.00
19236;BME280;9752;54.270;12.470;2024-03-22T12:43:16;101345.59;;;11.09;100.00
19236;BME280;9752;54.270;12.470;2024-03-22T12:48:19;101340.81;;;11.02;100.00
19236;BME280;9752;54.270;12.470;2024-03-22T12:53:20;101332.47;;;10.81;100.00
19236;BME280;9752;54.270;12.470;2024-03-22T12:58:22;101342.44;;;10.75;100.00
19236;BME280;9752;54.270;12.470;2024-03-22T13:03:25;101345.75;;;10.86;100.00
19236;BME280;9752;54.270;12.470;2024-03-22T13:08:26;101350.81;;;10.71;100.00
19236;BME280;9752;54.270;12.470;2024-03-22T13:13:28;101347.50;;;10.73;100.00
19236;BME280;9752;54.270;12.470;2024-03-22T13:18:31;101339.00;;;10.63;100.00
19236;BME280;9752;54.270;12.470;2024-03-22T13:23:32;101359.13;;;10.53;100.00
19236;BME280;9752;54.270;12.470;2024-03-22T13:28:34;101346.03;;;10.52;100.00
19236;BME280;9752;54.270;12.470;2024-03-22T13:33:38;101347.88;;;10.41;100.00
19236;BME280;9752;54.270;12.470;2024-03-22T13:38:39;101347.72;;;10.26;100.00
19236;BME280;9752;54.270;12.470;2024-03-22T13:43:41;101355.50;;;10.14;100.00
19236;BME280;9752;54.270;12.470;2024-03-22T13:48:46;101351.91;;;10.12;100.00
19236;BME280;9752;54.270;12.470;2024-03-22T13:53:48;101356.66;;;10.55;100.00
19236;BME280;9752;54.270;12.470;2024-03-22T13:58:49;101348.59;;;10.39;100.00
19236;BME280;9752;54.270;12.470;2024-03-22T14:03:53;101359.66;;;10.36;100.00
19236;BME280;9752;54.270;12.470;2024-03-22T14:08:55;101347.31;;;10.70;100.00
19236;BME280;9752;54.270;12.470;2024-03-22T14:14:01;101328.88;;;10.54;100.00
19236;BME280;9752;54.270;12.470;2024-03-22T14:19:03;101326.75;;;10.73;100.00
19236;BME280;9752;54.270;12.470;2024-03-22T14:24:05;101318.63;;;10.55;100.00
19236;BME280;9752;54.270;12.470;2024-03-22T14:29:08;101342.28;;;10.35;100.00
19236;BME280;9752;54.270;12.470;2024-03-22T14:34:11;101337.97;;;10.35;100.00
19236;BME280;9752;54.270;12.470;2024-03-22T14:39:13;101340.41;;;10.21;100.00
19236;BME280;9752;54.270;12.470;2024-03-22T14:44:14;101335.13;;;10.07;100.00
19236;BME280;9752;54.270;12.470;2024-03-22T14:49:17;101330.00;;;9.84;100.00
19236;BME280;9752;54.270;12.470;2024-03-22T14:54:20;101323.69;;;9.80;100.00
19236;BME280;9752;54.270;12.470;2024-03-22T14:59:22;101334.31;;;9.71;100.00
19236;BME280;9752;54.270;12.470;2024-03-22T15:04:25;101329.81;;;9.57;100.00
19236;BME280;9752;54.270;12.470;2024-03-22T15:09:26;101341.97;;;9.34;100.00
19236;BME280;9752;54.270;12.470;2024-03-22T15:14:28;101368.28;;;9.17;100.00
19236;BME280;9752;54.270;12.470;2024-03-22T15:19:32;101376.44;;;8.54;100.00
19236;BME280;9752;54.270;12.470;2024-03-22T15:24:34;101374.28;;;8.48;100.00
19236;BME280;9752;54.270;12.470;2024-03-22T15:29:36;101390.22;;;8.32;100.00
19236;BME280;9752;54.270;12.470;2024-03-22T15:34:39;101407.28;;;8.30;100.00
19236;BME280;9752;54.270;12.470;2024-03-22T15:39:40;101466.47;;;8.37;100.00
19236;BME280;9752;54.270;12.470;2024-03-22T15:44:42;101502.53;;;8.36;100.00
19236;BME280;9752;54.270;12.470;2024-03-22T15:49:45;101522.28;;;8.46;100.00
19236;BME280;9752;54.270;12.470;2024-03-22T15:54:47;101596.44;;;8.57;100.00
19236;BME280;9752;54.270;12.470;2024-03-22T15:59:49;101603.19;;;8.55;100.00
19236;BME280;9752;54.270;12.470;2024-03-22T16:04:52;101605.34;;;8.71;100.00
19236;BME280;9752;54.270;12.470;2024-03-22T16:09:54;101603.00;;;8.74;100.00
19236;BME280;9752;54.270;12.470;2024-03-22T16:14:56;101603.72;;;8.83;100.00
19236;BME280;9752;54.270;12.470;2024-03-22T16:19:59;101590.66;;;8.82;100.00
19236;BME280;9752;54.270;12.470;2024-03-22T16:25:01;101587.44;;;8.84;100.00
19236;BME280;9752;54.270;12.470;2024-03-22T16:30:03;101584.25;;;8.98;100.00
19236;BME280;9752;54.270;12.470;2024-03-22T16:35:07;101569.63;;;8.99;100.00
19236;BME280;9752;54.270;12.470;2024-03-22T16:40:09;101558.75;;;9.03;100.00
19236;BME280;9752;54.270;12.470;2024-03-22T16:45:11;101555.44;;;8.94;100.00
19236;BME280;9752;54.270;12.470;2024-03-22T16:50:14;101532.50;;;8.98;100.00
19236;BME280;9752;54.270;12.470;2024-03-22T16:55:16;101525.66;;;8.77;100.00
19236;BME280;9752;54.270;12.470;2024-03-22T17:00:18;101459.16;;;8.76;100.00
19236;BME280;9752;54.270;12.470;2024-03-22T17:05:21;101435.41;;;8.70;100.00
19236;BME280;9752;54.270;12.470;2024-03-22T17:10:23;101428.75;;;8.62;100.00
19236;BME280;9752;54.270;12.470;2024-03-22T17:15:24;101426.75;;;8.47;100.00
19236;BME280;9752;54.270;12.470;2024-03-22T17:20:27;101428.72;;;8.39;100.00
19236;BME280;9752;54.270;12.470;2024-03-22T17:25:31;101422.88;;;8.20;100.00
19236;BME280;9752;54.270;12.470;2024-03-22T17:30:33;101440.69;;;8.17;100.00
19236;BME280;9752;54.270;12.470;2024-03-22T17:35:36;101436.75;;;8.10;100.00
19236;BME280;9752;54.270;12.470;2024-03-22T17:40:38;101443.06;;;8.04;100.00
19236;BME280;9752;54.270;12.470;2024-03-22T17:45:40;101452.53;;;8.03;100.00
19236;BME280;9752;54.270;12.470;2024-03-22T17:50:43;101431.38;;;7.97;100.00
19236;BME280;9752;54.270;12.470;2024-03-22T17:55:44;101431.91;;;7.82;100.00
19236;BME280;9752;54.270;12.470;2024-03-22T18:00:46;101442.56;;;7.65;100.00
19236;BME280;9752;54.270;12.470;2024-03-22T18:05:49;101450.97;;;7.52;100.00
19236;BME280;9752;54.270;12.470;2024-03-22T18:10:50;101466.31;;;7.51;100.00
19236;BME280;9752;54.270;12.470;2024-03-22T18:15:52;101469.38;;;7.57;100.00
19236;BME280;9752;54.270;12.470;2024-03-22T18:20:55;101464.38;;;7.58;100.00
19236;BME280;9752;54.270;12.470;2024-03-22T18:25:57;101460.22;;;7.60;100.00
19236;BME280;9752;54.270;12.470;2024-03-22T18:30:59;101447.72;;;7.65;100.00
19236;BME280;9752;54.270;12.470;2024-03-22T18:36:03;101447.44;;;7.72;100.00
19236;BME280;9752;54.270;12.470;2024-03-22T18:41:05;101437.63;;;7.68;100.00
19236;BME280;9752;54.270;12.470;2024-03-22T18:46:07;101409.88;;;7.76;100.00
19236;BME280;9752;54.270;12.470;2024-03-22T18:51:10;101395.75;;;7.82;100.00
19236;BME280;9752;54.270;12.470;2024-03-22T18:56:14;101375.56;;;7.89;100.00
19236;BME280;9752;54.270;12.470;2024-03-22T19:01:16;101365.09;;;7.97;100.00
19236;BME280;9752;54.270;12.470;2024-03-22T19:06:19;101352.47;;;7.90;100.00
19236;BME280;9752;54.270;12.470;2024-03-22T19:11:21;101320.91;;;7.72;100.00
19236;BME280;9752;54.270;12.470;2024-03-22T19:16:23;101341.59;;;7.72;100.00
19236;BME280;9752;54.270;12.470;2024-03-22T19:21:27;101326.03;;;7.82;100.00
19236;BME280;9752;54.270;12.470;2024-03-22T19:26:29;101310.13;;;7.88;100.00
19236;BME280;9752;54.270;12.470;2024-03-22T19:31:30;101296.44;;;7.89;100.00
19236;BME280;9752;54.270;12.470;2024-03-22T19:36:33;101291.00;;;7.86;100.00
19236;BME280;9752;54.270;12.470;2024-03-22T19:41:35;101275.41;;;7.85;100.00
19236;BME280;9752;54.270;12.470;2024-03-22T19:46:37;101271.31;;;7.76;100.00
19236;BME280;9752;54.270;12.470;2024-03-22T19:51:40;101262.91;;;7.79;100.00
19236;BME280;9752;54.270;12.470;2024-03-22T19:56:42;101258.03;;;7.72;100.00
19236;BME280;9752;54.270;12.470;2024-03-22T20:01:46;101261.41;;;7.71;100.00
19236;BME280;9752;54.270;12.470;2024-03-22T20:06:49;101252.50;;;7.67;100.00
19236;BME280;9752;54.270;12.470;2024-03-22T20:11:51;101251.38;;;7.63;100.00
19236;BME280;9752;54.270;12.470;2024-03-22T20:16:53;101245.88;;;7.49;100.00
19236;BME280;9752;54.270;12.470;2024-03-22T20:21:55;101250.28;;;7.50;100.00
19236;BME280;9752;54.270;12.470;2024-03-22T20:26:58;101242.69;;;7.41;100.00
19236;BME280;9752;54.270;12.470;2024-03-22T20:32:00;101244.00;;;7.36;100.00
19236;BME280;9752;54.270;12.470;2024-03-22T20:37:03;101233.03;;;7.38;100.00
